sim
Sign-in with your pilot id or email,
or register
Callsign
Passwort

Schedule Details

Flight Number: DLH2029
Departure: Berlin Tegel Airport (EDDT) at 07:30
Arrival: Munich Airport (EDDM) at 08:40
Route: Lufthansa Passenger Schedule. Enter filed route here before submitting Pirep.

Weather Information
Getting current METAR information for EDDT 291720Z 31003KT CAVOK 15/09 Q1016 NOSIG
Getting current METAR information for EDDM 291720Z 26006KT 9999 SCT017 BKN030 11/09 Q1019 NOSIG

Schedule Frequency

Route Map